createdAt,value
2019-01-17T00:00:24.101Z,19.50
2019-01-17T00:03:25.114Z,18.30
2019-01-17T00:06:13.049Z,17.87
2019-01-17T00:09:17.185Z,19.30
2019-01-17T00:12:06.085Z,17.87
2019-01-17T00:14:50.543Z,17.50
2019-01-17T00:17:42.470Z,17.40
2019-01-17T00:20:50.532Z,16.60
2019-01-17T00:24:02.633Z,16.33
2019-01-17T00:26:40.091Z,17.30
2019-01-17T00:29:29.122Z,15.63
2019-01-17T00:32:23.841Z,15.77
2019-01-17T00:35:22.033Z,15.83
2019-01-17T00:38:10.873Z,16.20
2019-01-17T00:40:59.912Z,16.03
2019-01-17T00:44:01.144Z,16.23
2019-01-17T00:46:48.617Z,15.53
2019-01-17T00:49:36.252Z,16.30
2019-01-17T00:52:17.281Z,15.67
2019-01-17T00:55:00.709Z,15.13
2019-01-17T00:57:52.845Z,15.83
2019-01-17T01:00:55.416Z,16.13
2019-01-17T01:03:40.244Z,16.37
2019-01-17T01:06:28.342Z,15.30
2019-01-17T01:12:26.659Z,15.53
2019-01-17T01:15:24.530Z,16.43
2019-01-17T01:18:19.830Z,16.37
2019-01-17T01:21:06.461Z,15.87
2019-01-17T01:24:01.712Z,15.33
2019-01-17T01:26:56.996Z,15.47
2019-01-17T01:29:49.171Z,14.77
2019-01-17T01:32:36.540Z,15.27
2019-01-17T01:35:18.775Z,14.13
2019-01-17T01:38:06.532Z,14.53
2019-01-17T01:40:51.132Z,14.60
2019-01-17T01:43:40.089Z,14.00
2019-01-17T01:46:32.188Z,13.97
2019-01-17T01:49:19.762Z,13.37
2019-01-17T01:52:11.693Z,12.77
2019-01-17T01:54:41.739Z,13.50
2019-01-17T01:57:11.953Z,13.57
2019-01-17T01:59:42.106Z,13.23
2019-01-17T02:02:12.214Z,12.93
2019-01-17T02:04:42.391Z,13.17
2019-01-17T02:07:12.636Z,13.03
2019-01-17T02:09:42.614Z,13.00
2019-01-17T02:12:12.830Z,12.63
2019-01-17T02:14:43.102Z,12.43
2019-01-17T02:17:13.391Z,13.17
2019-01-17T02:19:43.582Z,11.50
2019-01-17T02:22:13.717Z,12.97
2019-01-17T02:24:43.764Z,12.47
2019-01-17T02:27:13.922Z,12.00
2019-01-17T02:29:44.035Z,12.40
2019-01-17T02:32:14.194Z,13.00
2019-01-17T02:34:44.315Z,13.40
2019-01-17T02:37:14.511Z,13.00
2019-01-17T02:39:44.474Z,12.80
2019-01-17T02:42:14.634Z,11.93
2019-01-17T02:44:44.831Z,12.83
2019-01-17T02:47:15.199Z,12.63
2019-01-17T02:49:45.237Z,12.43
2019-01-17T02:52:15.398Z,12.30
2019-01-17T02:54:45.374Z,11.73
2019-01-17T02:57:15.338Z,12.23
2019-01-17T02:59:45.507Z,12.57
2019-01-17T03:02:15.659Z,12.50
2019-01-17T03:04:45.832Z,12.47
2019-01-17T03:07:16.065Z,13.53
2019-01-17T03:09:46.118Z,12.17
2019-01-17T03:12:16.208Z,13.10
2019-01-17T03:14:46.372Z,12.87
2019-01-17T03:17:16.445Z,12.40
2019-01-17T03:19:46.480Z,11.97
2019-01-17T03:22:16.640Z,13.23
2019-01-17T03:24:46.594Z,13.23
2019-01-17T03:27:16.782Z,12.60
2019-01-17T03:29:47.886Z,12.33
2019-01-17T03:32:17.931Z,12.00
2019-01-17T03:34:48.071Z,12.47
2019-01-17T03:37:18.197Z,12.67
2019-01-17T03:39:48.347Z,12.03
2019-01-17T03:42:18.470Z,12.73
2019-01-17T03:44:48.546Z,12.13
2019-01-17T03:47:18.631Z,12.30
2019-01-17T03:49:48.818Z,12.83
2019-01-17T03:52:20.155Z,13.03
2019-01-17T03:54:53.905Z,12.23
2019-01-17T03:57:21.893Z,11.97
2019-01-17T03:59:52.151Z,12.07
2019-01-17T04:02:22.096Z,12.43
2019-01-17T04:04:52.309Z,12.67
2019-01-17T04:07:22.548Z,12.53
2019-01-17T04:09:52.652Z,12.43
2019-01-17T04:12:22.822Z,12.47
2019-01-17T04:14:53.111Z,12.30
2019-01-17T04:17:23.158Z,11.67
2019-01-17T04:19:53.246Z,12.10
2019-01-17T04:22:23.376Z,12.57
2019-01-17T04:24:57.333Z,12.03
2019-01-17T04:27:25.242Z,12.07
2019-01-17T04:29:55.415Z,12.83
2019-01-17T04:32:26.598Z,12.67
2019-01-17T04:34:56.569Z,12.27
2019-01-17T04:37:26.781Z,12.37
2019-01-17T04:39:56.962Z,12.03
2019-01-17T04:42:27.006Z,11.70
2019-01-17T04:44:57.328Z,10.97
2019-01-17T04:47:27.313Z,11.43
2019-01-17T04:49:57.381Z,12.00
2019-01-17T04:52:27.577Z,12.20
2019-01-17T04:55:04.803Z,11.47
2019-01-17T04:57:30.378Z,12.80
2019-01-17T05:00:00.482Z,12.57
2019-01-17T05:02:30.617Z,11.50
2019-01-17T05:05:00.898Z,12.50
2019-01-17T05:07:30.894Z,12.37
2019-01-17T05:10:00.842Z,11.80
2019-01-17T05:12:30.983Z,11.93
2019-01-17T05:15:01.075Z,12.27
2019-01-17T05:17:31.161Z,11.70
2019-01-17T05:20:01.172Z,11.70
2019-01-17T05:22:31.242Z,12.53
2019-01-17T05:25:01.251Z,11.60
2019-01-17T05:27:31.301Z,11.97
2019-01-17T05:30:01.403Z,11.47
2019-01-17T05:32:36.610Z,12.00
2019-01-17T05:35:03.462Z,10.80
2019-01-17T05:37:33.612Z,11.33
2019-01-17T05:40:03.681Z,10.97
2019-01-17T05:42:34.029Z,10.90
2019-01-17T05:45:04.049Z,11.03
2019-01-17T05:47:34.181Z,10.43
2019-01-17T05:50:05.005Z,10.67
2019-01-17T05:52:35.093Z,11.00
2019-01-17T05:55:05.757Z,11.67
2019-01-17T05:57:35.943Z,11.60
2019-01-17T06:00:08.978Z,13.40
2019-01-17T06:02:39.099Z,14.97
2019-01-17T06:05:09.676Z,16.67
2019-01-17T06:07:39.773Z,16.47
2019-01-17T06:10:11.157Z,17.47
2019-01-17T06:12:41.378Z,16.43
2019-01-17T06:15:11.907Z,18.07
2019-01-17T06:17:42.060Z,18.03
2019-01-17T06:20:14.070Z,18.23
2019-01-17T06:22:44.251Z,18.90
2019-01-17T06:25:14.446Z,18.50
2019-01-17T06:27:44.704Z,17.63
2019-01-17T06:30:15.478Z,18.03
2019-01-17T06:32:45.502Z,19.00
2019-01-17T06:35:15.786Z,18.73
2019-01-17T06:37:45.836Z,18.63
2019-01-17T06:40:19.364Z,18.40
2019-01-17T06:42:49.444Z,17.50
2019-01-17T06:45:19.727Z,17.80
2019-01-17T06:47:50.177Z,18.17
2019-01-17T06:50:20.360Z,16.93
2019-01-17T06:52:50.522Z,16.27
2019-01-17T06:55:20.725Z,16.87
2019-01-17T06:57:50.769Z,17.27
2019-01-17T07:00:22.279Z,16.83
2019-01-17T07:02:52.517Z,16.43
2019-01-17T07:05:22.590Z,18.03
2019-01-17T07:07:52.662Z,17.27
2019-01-17T07:10:22.821Z,16.83
2019-01-17T07:12:52.839Z,17.40
2019-01-17T07:15:23.011Z,17.37
2019-01-17T07:17:53.147Z,17.50
2019-01-17T07:20:23.199Z,18.73
2019-01-17T07:22:53.285Z,18.43
2019-01-17T07:25:23.429Z,18.63
2019-01-17T07:27:53.485Z,17.63
2019-01-17T07:30:24.653Z,18.67
2019-01-17T07:32:54.669Z,18.87
2019-01-17T07:35:24.715Z,18.30
2019-01-17T07:37:54.877Z,18.80
2019-01-17T07:40:25.049Z,18.37
2019-01-17T07:42:55.149Z,18.67
2019-01-17T07:45:27.903Z,17.83
2019-01-17T07:47:58.113Z,18.30
2019-01-17T07:50:28.285Z,18.30
2019-01-17T07:52:58.517Z,17.63
2019-01-17T07:55:28.750Z,17.73
2019-01-17T07:57:58.735Z,18.10
2019-01-17T08:00:29.004Z,17.27
2019-01-17T08:03:00.486Z,17.83
2019-01-17T08:05:30.572Z,17.67
2019-01-17T08:08:00.713Z,17.90
2019-01-17T08:10:30.713Z,17.77
2019-01-17T08:13:00.857Z,17.13
2019-01-17T08:15:31.045Z,18.27
2019-01-17T08:18:01.115Z,17.17
2019-01-17T08:20:31.055Z,17.47
2019-01-17T08:23:01.177Z,18.30
2019-01-17T08:25:31.229Z,17.20
2019-01-17T08:28:01.289Z,16.57
2019-01-17T08:30:31.506Z,16.07
2019-01-17T08:33:01.541Z,16.53
2019-01-17T08:35:31.707Z,16.47
2019-01-17T08:38:01.810Z,17.23
2019-01-17T08:40:33.805Z,16.50
2019-01-17T08:43:04.034Z,16.57
2019-01-17T08:45:34.221Z,15.83
2019-01-17T08:48:04.388Z,15.97
2019-01-17T08:50:34.579Z,16.43
2019-01-17T08:53:04.845Z,16.83
2019-01-17T08:55:35.037Z,17.50
2019-01-17T08:58:05.192Z,17.37
2019-01-17T09:00:35.453Z,15.97
2019-01-17T09:03:09.210Z,15.30
2019-01-17T09:05:39.451Z,16.27
2019-01-17T09:08:09.651Z,15.47
2019-01-17T09:10:39.730Z,15.97
2019-01-17T09:13:09.836Z,16.70
2019-01-17T09:15:39.966Z,16.00
2019-01-17T09:18:09.985Z,16.00
2019-01-17T09:20:40.116Z,15.37
2019-01-17T09:23:10.202Z,16.10
2019-01-17T09:25:40.272Z,16.47
2019-01-17T09:28:10.306Z,16.47
2019-01-17T09:30:40.245Z,17.47
2019-01-17T09:33:10.388Z,15.90
2019-01-17T09:35:40.556Z,17.27
2019-01-17T09:38:10.624Z,16.63
2019-01-17T09:40:40.692Z,15.17
2019-01-17T09:43:10.828Z,16.47
2019-01-17T09:45:40.749Z,16.40
2019-01-17T09:48:10.821Z,15.53
2019-01-17T09:50:40.958Z,15.00
2019-01-17T09:53:11.017Z,15.13
2019-01-17T09:55:41.113Z,15.60
2019-01-17T09:58:11.147Z,16.97
2019-01-17T10:00:41.282Z,16.20
2019-01-17T10:03:11.242Z,16.27
2019-01-17T10:05:42.428Z,16.07
2019-01-17T10:08:12.607Z,17.30
2019-01-17T10:10:42.679Z,18.03
2019-01-17T10:13:12.692Z,17.37
2019-01-17T10:15:53.840Z,17.63
2019-01-17T10:19:13.268Z,16.37
2019-01-17T10:22:42.338Z,17.37
2019-01-17T10:25:33.420Z,16.73
2019-01-17T10:28:50.079Z,16.93
2019-01-17T10:31:44.334Z,17.27
2019-01-17T10:34:48.427Z,17.60
2019-01-17T10:37:53.873Z,16.93
2019-01-17T10:41:13.707Z,17.30
2019-01-17T10:44:14.459Z,17.20
2019-01-17T10:47:23.887Z,17.67
2019-01-17T10:50:10.386Z,17.67
2019-01-17T10:53:10.178Z,17.20
2019-01-17T10:56:04.862Z,17.70
2019-01-17T10:59:15.850Z,17.60
2019-01-17T11:02:25.799Z,18.30
2019-01-17T11:05:31.917Z,16.17
2019-01-17T11:08:37.204Z,16.73
2019-01-17T11:11:35.785Z,17.50
2019-01-17T11:14:18.300Z,17.23
2019-01-17T11:17:34.134Z,17.10
2019-01-17T11:20:35.552Z,17.13
2019-01-17T11:23:47.628Z,18.10
2019-01-17T11:26:52.059Z,16.63
2019-01-17T11:29:37.960Z,16.50
2019-01-17T11:32:39.754Z,17.70
2019-01-17T11:35:58.143Z,18.67
2019-01-17T11:39:02.881Z,17.43
2019-01-17T11:42:08.577Z,18.30
2019-01-17T11:45:09.386Z,18.13
2019-01-17T11:48:11.488Z,18.40
2019-01-17T11:51:22.429Z,18.13
2019-01-17T11:54:34.054Z,17.07
2019-01-17T11:57:43.919Z,18.17
2019-01-17T12:01:09.788Z,17.43
2019-01-17T12:03:54.139Z,17.33
2019-01-17T12:06:24.232Z,17.43
2019-01-17T12:08:54.306Z,18.00
2019-01-17T12:11:24.469Z,18.03
2019-01-17T12:13:54.530Z,16.43
2019-01-17T12:16:24.741Z,17.03
2019-01-17T12:18:54.832Z,17.07
2019-01-17T12:21:24.834Z,17.50
2019-01-17T12:23:54.999Z,18.53
2019-01-17T12:26:24.993Z,18.27
2019-01-17T12:28:55.052Z,18.00
2019-01-17T12:31:25.088Z,18.00
2019-01-17T12:33:55.250Z,17.47
2019-01-17T12:36:25.255Z,18.33
2019-01-17T12:38:55.220Z,17.87
2019-01-17T12:41:25.376Z,18.00
2019-01-17T12:43:55.447Z,19.83
2019-01-17T12:46:25.524Z,18.70
2019-01-17T12:48:55.600Z,17.97
2019-01-17T12:51:25.594Z,18.57
2019-01-17T12:53:55.516Z,16.73
2019-01-17T12:56:25.553Z,17.83
2019-01-17T12:58:55.599Z,18.20
2019-01-17T13:01:25.807Z,18.20
2019-01-17T13:03:55.976Z,19.00
2019-01-17T13:06:26.054Z,19.10
2019-01-17T13:08:56.202Z,18.90
2019-01-17T13:11:26.476Z,18.73
2019-01-17T13:13:56.440Z,17.77
2019-01-17T13:16:26.610Z,17.97
2019-01-17T13:18:56.799Z,17.27
2019-01-17T13:21:26.880Z,17.47
2019-01-17T13:23:57.019Z,17.20
2019-01-17T13:26:27.152Z,17.37
2019-01-17T13:28:57.160Z,16.97
2019-01-17T13:31:27.325Z,17.13
2019-01-17T13:33:57.407Z,17.60
2019-01-17T13:36:27.376Z,17.17
2019-01-17T13:38:57.558Z,17.13
2019-01-17T13:41:27.641Z,16.80
2019-01-17T13:43:57.588Z,17.17
2019-01-17T13:46:27.733Z,17.17
2019-01-17T13:48:57.764Z,17.13
2019-01-17T13:51:27.720Z,17.33
2019-01-17T13:53:57.782Z,17.43
2019-01-17T13:56:27.953Z,17.80
2019-01-17T13:58:58.113Z,17.47
2019-01-17T14:01:28.167Z,17.03
2019-01-17T14:03:58.477Z,17.53
2019-01-17T14:06:28.541Z,18.00
2019-01-17T14:08:58.523Z,17.60
2019-01-17T14:11:28.785Z,18.67
2019-01-17T14:13:58.848Z,17.80
2019-01-17T14:16:30.311Z,18.43
2019-01-17T14:19:00.499Z,18.10
2019-01-17T14:21:30.479Z,18.50
2019-01-17T14:24:00.424Z,19.23
2019-01-17T14:26:30.478Z,19.57
2019-01-17T14:29:00.533Z,19.07
2019-01-17T14:31:30.699Z,20.93
2019-01-17T14:34:00.827Z,20.93
2019-01-17T14:36:30.967Z,19.40
2019-01-17T14:39:00.993Z,18.83
2019-01-17T14:41:32.265Z,19.73
2019-01-17T14:44:02.217Z,20.77
2019-01-17T14:46:32.145Z,20.13
2019-01-17T14:49:02.280Z,20.60
2019-01-17T14:51:32.362Z,20.47
2019-01-17T14:54:02.316Z,19.27
2019-01-17T14:56:32.438Z,19.87
2019-01-17T14:59:02.409Z,20.27
2019-01-17T15:01:32.429Z,21.60
2019-01-17T15:04:02.514Z,20.33
2019-01-17T15:06:32.606Z,19.97
2019-01-17T15:09:03.533Z,20.10
2019-01-17T15:11:33.591Z,18.90
2019-01-17T15:14:03.565Z,21.57
2019-01-17T15:16:33.803Z,20.00
2019-01-17T15:19:05.064Z,20.40
2019-01-17T15:21:35.153Z,19.73
2019-01-17T15:24:05.482Z,19.77
2019-01-17T15:26:35.548Z,18.33
2019-01-17T15:29:05.590Z,18.70
2019-01-17T15:31:35.609Z,19.23
2019-01-17T15:34:05.821Z,19.00
2019-01-17T15:36:35.896Z,19.87
2019-01-17T15:39:09.319Z,22.13
2019-01-17T15:41:39.531Z,27.90
2019-01-17T15:44:09.608Z,31.13
2019-01-17T15:46:39.736Z,31.53
2019-01-17T15:49:09.848Z,33.07
2019-01-17T15:51:39.795Z,32.07
2019-01-17T15:54:09.831Z,34.40
2019-01-17T15:56:39.943Z,34.87
2019-01-17T15:59:09.991Z,33.23
2019-01-17T16:01:40.262Z,32.97
2019-01-17T16:04:10.297Z,36.60
2019-01-17T16:06:40.384Z,35.80
2019-01-17T16:09:10.725Z,39.03
2019-01-17T16:11:40.820Z,40.67
2019-01-17T16:14:10.902Z,42.03
2019-01-17T16:16:41.005Z,41.53
2019-01-17T16:19:11.264Z,42.00
2019-01-17T16:21:41.300Z,43.70
2019-01-17T16:24:12.389Z,43.93
2019-01-17T16:26:42.505Z,43.23
2019-01-17T16:29:12.549Z,44.67
2019-01-17T16:31:42.576Z,43.27
2019-01-17T16:34:12.710Z,44.20
2019-01-17T16:36:42.873Z,45.60
2019-01-17T16:39:13.159Z,44.80
2019-01-17T16:41:43.129Z,46.93
2019-01-17T16:44:13.282Z,43.77
2019-01-17T16:46:43.459Z,45.13
2019-01-17T16:49:13.517Z,43.93
2019-01-17T16:51:43.710Z,44.00
2019-01-17T16:54:13.789Z,43.43
2019-01-17T16:56:43.769Z,42.47
2019-01-17T16:59:13.831Z,42.10
2019-01-17T17:01:43.971Z,41.40
2019-01-17T17:04:13.944Z,43.03
2019-01-17T17:06:44.121Z,42.87
2019-01-17T17:09:14.226Z,42.27
2019-01-17T17:11:44.217Z,40.90
2019-01-17T17:14:14.205Z,40.80
2019-01-17T17:16:44.244Z,40.03
2019-01-17T17:19:14.471Z,40.37
2019-01-17T17:21:44.515Z,38.97
2019-01-17T17:24:14.549Z,38.97
2019-01-17T17:26:44.774Z,38.80
2019-01-17T17:29:14.767Z,38.53
2019-01-17T17:31:44.854Z,39.43
2019-01-17T17:34:14.917Z,37.27
2019-01-17T17:36:44.889Z,36.97
2019-01-17T17:39:15.149Z,37.63
2019-01-17T17:41:45.200Z,36.70
2019-01-17T17:44:15.198Z,37.17
2019-01-17T17:46:45.335Z,36.57
2019-01-17T17:49:15.409Z,36.70
2019-01-17T17:51:45.368Z,36.73
2019-01-17T17:54:15.506Z,34.97
2019-01-17T17:56:45.524Z,34.03
2019-01-17T17:59:15.854Z,34.40
2019-01-17T18:01:50.236Z,35.53
2019-01-17T18:04:20.197Z,32.73
2019-01-17T18:06:50.228Z,33.83
2019-01-17T18:09:20.503Z,34.03
2019-01-17T18:11:50.559Z,33.13
2019-01-17T18:14:20.641Z,32.57
2019-01-17T18:16:50.746Z,33.50
2019-01-17T18:19:20.784Z,32.43
2019-01-17T18:21:50.909Z,33.07
2019-01-17T18:24:21.051Z,33.73
2019-01-17T18:26:51.243Z,33.23
2019-01-17T18:29:21.206Z,31.60
2019-01-17T18:31:51.421Z,32.30
2019-01-17T18:34:21.521Z,31.37
2019-01-17T18:36:51.567Z,30.70
2019-01-17T18:39:21.712Z,32.23
2019-01-17T18:41:51.810Z,30.90
2019-01-17T18:44:21.878Z,31.97
2019-01-17T18:46:52.032Z,31.87
2019-01-17T18:49:22.134Z,30.63
2019-01-17T18:51:52.203Z,31.37
2019-01-17T18:54:22.237Z,32.13
2019-01-17T18:56:52.351Z,31.93
2019-01-17T18:59:22.381Z,31.10
2019-01-17T19:01:52.636Z,31.90
2019-01-17T19:04:22.677Z,31.00
2019-01-17T19:06:52.775Z,31.63
2019-01-17T19:09:23.567Z,32.47
2019-01-17T19:11:53.765Z,31.67
2019-01-17T19:14:23.880Z,31.33
2019-01-17T19:16:54.051Z,30.50
2019-01-17T19:19:24.075Z,29.50
2019-01-17T19:21:54.190Z,29.63
2019-01-17T19:24:24.311Z,29.10
2019-01-17T19:26:54.373Z,28.53
2019-01-17T19:29:24.462Z,29.67
2019-01-17T19:31:54.632Z,29.23
2019-01-17T19:34:24.680Z,29.03
2019-01-17T19:36:54.733Z,29.97
2019-01-17T19:39:24.901Z,30.67
2019-01-17T19:41:55.050Z,31.20
2019-01-17T19:44:25.787Z,31.10
2019-01-17T19:46:56.026Z,31.77
2019-01-17T19:49:25.997Z,28.67
2019-01-17T19:51:56.083Z,29.77
2019-01-17T19:54:26.146Z,29.80
2019-01-17T19:56:56.239Z,29.77
2019-01-17T19:59:26.284Z,28.93
2019-01-17T20:01:56.539Z,29.53
2019-01-17T20:04:26.596Z,28.50
2019-01-17T20:06:56.684Z,29.43
2019-01-17T20:09:26.713Z,29.73
2019-01-17T20:11:56.881Z,31.03
2019-01-17T20:14:27.173Z,34.13
2019-01-17T20:16:57.413Z,34.30
2019-01-17T20:19:31.114Z,38.37
2019-01-17T20:22:01.091Z,37.73
2019-01-17T20:24:31.180Z,39.00
2019-01-17T20:27:01.366Z,41.00
2019-01-17T20:29:31.390Z,41.37
2019-01-17T20:32:01.375Z,42.33
2019-01-17T20:34:31.450Z,42.30
2019-01-17T20:37:01.494Z,43.33
2019-01-17T20:39:31.558Z,45.03
2019-01-17T20:42:01.590Z,45.77
2019-01-17T20:44:31.665Z,48.07
2019-01-17T20:47:01.829Z,47.63
2019-01-17T20:49:31.956Z,48.97
2019-01-17T20:52:02.723Z,48.00
2019-01-17T20:54:32.838Z,44.33
2019-01-17T20:57:03.092Z,46.30
2019-01-17T20:59:33.172Z,45.23
2019-01-17T21:02:14.027Z,45.43
2019-01-17T21:04:44.005Z,48.60
2019-01-17T21:07:14.225Z,45.37
2019-01-17T21:09:44.336Z,46.67
2019-01-17T21:12:14.389Z,47.13
2019-01-17T21:14:44.466Z,48.63
2019-01-17T21:17:14.490Z,51.13
2019-01-17T21:19:44.593Z,50.77
2019-01-17T21:22:14.687Z,51.00
2019-01-17T21:24:44.722Z,48.70
2019-01-17T21:27:14.770Z,50.67
2019-01-17T21:29:45.759Z,47.13
2019-01-17T21:32:16.013Z,49.47
2019-01-17T21:34:46.006Z,50.40
2019-01-17T21:37:15.987Z,51.47
2019-01-17T21:39:46.021Z,48.93
2019-01-17T21:42:15.991Z,49.50
2019-01-17T21:44:46.049Z,51.60
2019-01-17T21:47:16.082Z,59.53
2019-01-17T21:49:46.126Z,70.37
2019-01-17T21:52:16.286Z,76.87
2019-01-17T21:54:47.363Z,84.53
2019-01-17T21:57:17.328Z,82.00
2019-01-17T21:59:47.246Z,83.93
2019-01-17T22:02:17.511Z,89.63
2019-01-17T22:04:47.563Z,81.23
2019-01-17T22:07:17.704Z,85.50
2019-01-17T22:09:47.829Z,93.33
2019-01-17T22:12:17.793Z,92.53
2019-01-17T22:14:47.864Z,88.90
2019-01-17T22:17:17.912Z,85.83
2019-01-17T22:19:48.101Z,82.40
2019-01-17T22:22:18.180Z,79.87
2019-01-17T22:24:48.274Z,77.73
2019-01-17T22:27:18.225Z,78.57
2019-01-17T22:29:48.291Z,75.50
2019-01-17T22:32:18.447Z,73.07
2019-01-17T22:34:48.455Z,76.37
2019-01-17T22:37:18.546Z,71.83
2019-01-17T22:39:48.619Z,78.03
2019-01-17T22:42:18.656Z,71.10
2019-01-17T22:44:53.048Z,75.00
2019-01-17T22:47:20.479Z,72.97
2019-01-17T22:49:50.542Z,68.97
2019-01-17T22:52:20.678Z,60.90
2019-01-17T22:54:50.796Z,59.27
2019-01-17T22:57:20.812Z,61.37
2019-01-17T22:59:50.849Z,58.23
2019-01-17T23:02:21.151Z,60.60
2019-01-17T23:04:51.212Z,56.77
2019-01-17T23:07:21.184Z,56.43
2019-01-17T23:09:51.218Z,54.17
2019-01-17T23:12:21.161Z,52.63
2019-01-17T23:14:51.290Z,53.80
2019-01-17T23:17:21.364Z,50.97
2019-01-17T23:19:51.350Z,51.00
2019-01-17T23:22:21.466Z,50.47
2019-01-17T23:24:51.472Z,50.03
2019-01-17T23:27:21.556Z,47.43
2019-01-17T23:29:51.528Z,49.83
2019-01-17T23:32:22.657Z,47.23
2019-01-17T23:34:52.734Z,49.00
2019-01-17T23:37:22.678Z,47.67
2019-01-17T23:39:52.736Z,46.47
2019-01-17T23:42:22.797Z,43.13
2019-01-17T23:44:52.934Z,43.93
2019-01-17T23:47:23.071Z,44.30
2019-01-17T23:49:53.269Z,44.50
2019-01-17T23:52:23.336Z,43.60
2019-01-17T23:54:53.366Z,42.67
2019-01-17T23:57:23.334Z,43.87
2019-01-17T23:59:53.294Z,40.37
